This is the latest recevied weather packets stored in our database for station/object KG0HG. If no packets are shown the sender has not sent any weather packets the latest 10 day(s).
| Time | Temp. | Humidity | Pressure | Rain* | Wind** | Luminosity | Snow |
|---|---|---|---|---|---|---|---|
| 1778105472 | 16.11° C | 32% | 1017.1 hPa | 0 mm | - | 46 W/m² | - |
| 1778105168 | 15.56° C | 33% | 1017.4 hPa | 0 mm | - | 49 W/m² | - |
| 1778104864 | 15.56° C | 34% | 1017.4 hPa | 0 mm | - | 183 W/m² | - |
| 1778104561 | 15° C | 34% | 1017.4 hPa | 0 mm | - | 293 W/m² | - |
| 1778104256 | 15° C | 36% | 1017.3 hPa | 0 mm | - | 56 W/m² | - |
| 1778103953 | 15.56° C | 34% | 1017.6 hPa | 0 mm | - | 79 W/m² | - |
| 1778103651 | 15.56° C | 34% | 1017.5 hPa | 0 mm | - | 81 W/m² | - |
| 1778103349 | 14.44° C | 33% | 1017.4 hPa | 0 mm | - | 519 W/m² | - |
| 1778103046 | 14.44° C | 34% | 1017.4 hPa | 0 mm | - | 165 W/m² | - |
| 1778102742 | 15.56° C | 34% | 1017.5 hPa | 0 mm | - | 92 W/m² | - |
| 1778102437 | 15° C | 33% | 1017.5 hPa | 0 mm | - | 324 W/m² | - |
| 1778102133 | 15.56° C | 34% | 1017.7 hPa | 0 mm | - | 58 W/m² | - |
| 1778101831 | 15.56° C | 33% | 1017.7 hPa | 0 mm | - | 110 W/m² | - |
| 1778101527 | 15.56° C | 34% | 1017.8 hPa | 0 mm | - | 48 W/m² | - |
| 1778101224 | 15.56° C | 35% | 1018 hPa | 0 mm | - | 49 W/m² | - |
| 1778100921 | 15.56° C | 34% | 1018.1 hPa | 0 mm | - | 104 W/m² | - |
| 1778100616 | 15° C | 34% | 1018.1 hPa | 0 mm | - | 51 W/m² | - |
| 1778100314 | 15.56° C | 34% | 1018.2 hPa | 0 mm | - | 50 W/m² | - |
| 1778100011 | 15.56° C | 34% | 1018.3 hPa | 0 mm | - | 56 W/m² | - |
| 1778099709 | 15.56° C | 34% | 1018.3 hPa | 0 mm | - | 106 W/m² | - |
| 1778099404 | 15.56° C | 33% | 1018.5 hPa | 0 mm | - | 92 W/m² | - |
| 1778099102 | 15° C | 33% | 1018.3 hPa | 0 mm | - | 78 W/m² | - |
| 1778098798 | 14.44° C | 33% | 1018.2 hPa | 0 mm | - | 65 W/m² | - |
| 1778098496 | 15° C | 34% | 1018.5 hPa | 0 mm | - | 79 W/m² | - |
| 1778098187 | 15° C | 33% | 1018.5 hPa | 0 mm | - | 75 W/m² | - |
* Rain latest hour (hover to see other rain measurements)
** Current wind speed in m/s (hover to see current wind gust speed)